createdAt,value
2018-01-25T00:00:46.241Z,49.90
2018-01-25T00:03:13.754Z,50.90
2018-01-25T00:05:41.943Z,50.00
2018-01-25T00:08:09.410Z,50.00
2018-01-25T00:10:36.883Z,50.00
2018-01-25T00:13:04.344Z,50.30
2018-01-25T00:15:31.801Z,50.40
2018-01-25T00:17:59.279Z,50.60
2018-01-25T00:20:27.509Z,50.70
2018-01-25T00:22:54.972Z,50.60
2018-01-25T00:25:22.423Z,50.60
2018-01-25T00:27:49.892Z,50.60
2018-01-25T00:30:17.363Z,50.80
2018-01-25T00:32:44.816Z,50.70
2018-01-25T00:35:12.285Z,51.10
2018-01-25T00:37:39.735Z,50.80
2018-01-25T00:40:07.199Z,50.40
2018-01-25T00:42:34.667Z,50.30
2018-01-25T00:45:02.907Z,50.50
2018-01-25T00:47:30.363Z,50.50
2018-01-25T00:49:57.830Z,50.60
2018-01-25T00:52:25.280Z,50.80
2018-01-25T00:54:52.747Z,50.70
2018-01-25T00:57:20.200Z,50.70
2018-01-25T00:59:47.675Z,51.10
2018-01-25T01:02:15.124Z,51.10
2018-01-25T01:04:42.600Z,51.10
2018-01-25T01:07:10.056Z,51.10
2018-01-25T01:09:38.291Z,50.90
2018-01-25T01:12:05.749Z,50.80
2018-01-25T01:14:33.220Z,50.70
2018-01-25T01:17:00.671Z,50.40
2018-01-25T01:19:28.141Z,50.40
2018-01-25T01:21:55.609Z,50.60
2018-01-25T01:24:23.080Z,50.70
2018-01-25T01:26:51.311Z,50.50
2018-01-25T01:29:18.775Z,50.50
2018-01-25T01:31:46.228Z,50.30
2018-01-25T01:34:13.697Z,50.30
2018-01-25T01:36:41.148Z,50.50
2018-01-25T01:39:09.388Z,50.50
2018-01-25T01:41:36.861Z,50.50
2018-01-25T01:44:04.323Z,50.80
2018-01-25T01:46:31.788Z,50.90
2018-01-25T01:48:59.244Z,50.90
2018-01-25T01:51:26.707Z,50.80
2018-01-25T01:53:54.174Z,51.40
2018-01-25T01:56:21.635Z,51.20
2018-01-25T01:58:49.090Z,51.00
2018-01-25T02:01:16.558Z,50.70
2018-01-25T02:03:44.008Z,50.60
2018-01-25T02:06:11.472Z,50.80
2018-01-25T02:08:38.923Z,50.70
2018-01-25T02:11:06.391Z,50.70
2018-01-25T02:13:33.855Z,51.00
2018-01-25T02:16:01.324Z,50.80
2018-01-25T02:18:29.539Z,51.60
2018-01-25T02:20:57.010Z,51.50
2018-01-25T02:23:25.243Z,51.60
2018-01-25T02:25:53.468Z,51.90
2018-01-25T02:28:20.924Z,51.90
2018-01-25T02:30:48.388Z,51.70
2018-01-25T02:33:15.843Z,51.80
2018-01-25T02:35:43.311Z,51.90
2018-01-25T02:38:10.756Z,51.80
2018-01-25T02:40:38.226Z,51.80
2018-01-25T02:43:05.679Z,51.90
2018-01-25T02:45:33.150Z,52.20
2018-01-25T02:48:00.607Z,52.30
2018-01-25T02:50:28.069Z,52.30
2018-01-25T02:52:55.531Z,52.30
2018-01-25T02:55:24.157Z,52.30
2018-01-25T02:57:51.711Z,52.30
2018-01-25T03:00:19.160Z,51.90
2018-01-25T03:02:46.625Z,52.00
2018-01-25T03:05:14.080Z,51.90
2018-01-25T03:07:41.540Z,52.20
2018-01-25T03:10:08.991Z,52.20
2018-01-25T03:12:36.476Z,52.60
2018-01-25T03:15:03.928Z,52.50
2018-01-25T03:17:31.387Z,52.80
2018-01-25T03:19:58.847Z,52.90
2018-01-25T03:22:26.313Z,53.00
2018-01-25T03:24:53.772Z,52.80
2018-01-25T03:27:21.249Z,53.10
2018-01-25T03:29:48.707Z,53.10
2018-01-25T03:32:16.173Z,53.10
2018-01-25T03:34:43.628Z,53.10
2018-01-25T03:37:11.088Z,53.30
2018-01-25T03:39:38.547Z,53.00
2018-01-25T03:42:06.008Z,53.40
2018-01-25T03:44:34.234Z,53.60
2018-01-25T03:47:01.709Z,53.60
2018-01-25T03:49:29.167Z,53.60
2018-01-25T03:51:56.632Z,53.70
2018-01-25T03:54:24.091Z,53.70
2018-01-25T03:56:51.559Z,53.80
2018-01-25T03:59:19.011Z,53.70
2018-01-25T04:01:46.488Z,53.70
2018-01-25T04:04:14.710Z,53.80
2018-01-25T04:06:42.173Z,53.60
2018-01-25T04:09:09.628Z,54.10
2018-01-25T04:11:37.084Z,54.20
2018-01-25T04:14:04.547Z,53.80
2018-01-25T04:16:32.007Z,53.70
2018-01-25T04:18:59.475Z,53.70
2018-01-25T04:21:27.696Z,53.80
2018-01-25T04:23:55.163Z,54.00
2018-01-25T04:26:22.629Z,53.60
2018-01-25T04:28:50.088Z,53.80
2018-01-25T04:31:17.549Z,54.30
2018-01-25T04:33:45.013Z,53.30
2018-01-25T04:36:12.475Z,53.40
2018-01-25T04:38:39.932Z,53.50
2018-01-25T04:41:07.399Z,53.60
2018-01-25T04:43:34.867Z,53.70
2018-01-25T04:46:02.324Z,53.30
2018-01-25T04:48:29.784Z,53.40
2018-01-25T04:50:57.245Z,53.20
2018-01-25T04:53:24.711Z,53.00
2018-01-25T04:55:52.164Z,52.60
2018-01-25T04:58:19.636Z,52.30
2018-01-25T05:00:47.091Z,52.40
2018-01-25T05:03:14.565Z,53.00
2018-01-25T05:05:42.780Z,52.10
2018-01-25T05:08:10.252Z,52.00
2018-01-25T05:10:37.712Z,52.10
2018-01-25T05:13:05.178Z,52.60
2018-01-25T05:15:32.631Z,53.00
2018-01-25T05:18:00.075Z,52.70
2018-01-25T05:20:27.572Z,52.90
2018-01-25T05:22:55.026Z,53.10
2018-01-25T05:25:22.897Z,53.70
2018-01-25T05:27:50.342Z,53.60
2018-01-25T05:30:17.812Z,53.50
2018-01-25T05:32:45.343Z,53.60
2018-01-25T05:35:12.799Z,54.10
2018-01-25T05:37:40.250Z,54.40
2018-01-25T05:40:07.720Z,54.20
2018-01-25T05:42:35.176Z,53.80
2018-01-25T05:45:02.650Z,53.80
2018-01-25T05:47:30.109Z,54.10
2018-01-25T05:49:57.585Z,53.90
2018-01-25T05:52:27.123Z,53.70
2018-01-25T05:55:01.787Z,53.60
2018-01-25T05:57:29.272Z,53.80
2018-01-25T05:59:57.511Z,53.50
2018-01-25T06:02:24.976Z,53.50
2018-01-25T06:04:52.443Z,53.70
2018-01-25T06:07:20.710Z,53.80
2018-01-25T06:09:48.185Z,53.70
2018-01-25T06:12:15.636Z,54.10
2018-01-25T06:14:43.109Z,55.30
2018-01-25T06:17:11.336Z,56.00
2018-01-25T06:19:39.798Z,56.00
2018-01-25T06:22:07.282Z,56.00
2018-01-25T06:24:34.794Z,55.90
2018-01-25T06:27:02.248Z,55.90
2018-01-25T06:29:30.495Z,56.30
2018-01-25T06:32:03.398Z,56.90
2018-01-25T06:34:31.637Z,56.70
2018-01-25T06:36:59.100Z,56.60
2018-01-25T06:39:26.572Z,56.50
2018-01-25T06:41:54.088Z,56.60
2018-01-25T06:44:21.606Z,57.00
2018-01-25T06:46:49.852Z,56.50
2018-01-25T06:49:17.308Z,56.50
2018-01-25T06:51:44.786Z,56.50
2018-01-25T06:54:12.261Z,56.00
2018-01-25T06:56:40.488Z,54.50
2018-01-25T06:59:07.953Z,55.30
2018-01-25T07:01:35.445Z,55.50
2018-01-25T07:06:36.785Z,54.40
2018-01-25T07:09:04.245Z,54.50
2018-01-25T07:11:33.267Z,55.60
2018-01-25T07:14:01.493Z,55.70
2018-01-25T07:16:29.074Z,55.70
2018-01-25T07:18:56.535Z,55.60
2018-01-25T07:21:24.006Z,54.50
2018-01-25T07:23:51.491Z,54.40
2018-01-25T07:26:18.951Z,54.70
2018-01-25T07:28:46.457Z,54.40
2018-01-25T07:31:13.930Z,55.30
2018-01-25T07:33:41.395Z,54.40
2018-01-25T07:36:08.908Z,54.40
2018-01-25T07:38:36.716Z,54.20
2018-01-25T07:41:04.199Z,54.40
2018-01-25T07:43:32.421Z,54.10
2018-01-25T07:45:59.961Z,54.10
2018-01-25T07:48:27.428Z,54.50
2018-01-25T07:50:54.901Z,55.30
2018-01-25T07:53:23.122Z,53.90
2018-01-25T07:55:50.591Z,53.90
2018-01-25T08:00:56.802Z,53.80
2018-01-25T08:03:24.271Z,53.90
2018-01-25T08:05:52.509Z,52.90
2018-01-25T08:08:19.988Z,53.40
2018-01-25T08:10:47.450Z,53.20
2018-01-25T08:13:20.684Z,53.20
2018-01-25T08:15:48.913Z,52.30
2018-01-25T08:18:16.384Z,52.30
2018-01-25T08:20:43.861Z,52.30
2018-01-25T08:23:11.339Z,52.20
2018-01-25T08:25:39.571Z,52.00
2018-01-25T08:28:07.046Z,51.90
2018-01-25T08:30:34.510Z,51.20
2018-01-25T08:33:01.992Z,51.40
2018-01-25T08:35:30.239Z,50.50
2018-01-25T08:37:57.736Z,50.40
2018-01-25T08:40:25.971Z,50.70
2018-01-25T08:42:53.437Z,50.80
2018-01-25T08:45:20.906Z,50.80
2018-01-25T08:47:49.151Z,51.20
2018-01-25T08:50:16.620Z,51.10
2018-01-25T08:52:44.089Z,50.40
2018-01-25T08:55:11.552Z,49.60
2018-01-25T08:57:39.014Z,49.20
2018-01-25T09:00:07.243Z,48.90
2018-01-25T09:02:34.722Z,48.80
2018-01-25T09:05:02.224Z,49.20
2018-01-25T09:07:29.811Z,48.40
2018-01-25T09:09:57.447Z,48.20
2018-01-25T09:12:25.021Z,47.80
2018-01-25T09:14:52.520Z,47.90
2018-01-25T09:17:20.075Z,48.00
2018-01-25T09:19:47.599Z,47.90
2018-01-25T09:22:15.134Z,46.40
2018-01-25T09:24:43.464Z,46.20
2018-01-25T09:27:10.982Z,46.10
2018-01-25T09:29:38.505Z,46.60
2018-01-25T09:32:06.104Z,47.00
2018-01-25T09:34:33.584Z,45.80
2018-01-25T09:37:01.255Z,45.90
2018-01-25T09:39:29.209Z,41.40
2018-01-25T09:41:56.874Z,42.70
2018-01-25T09:44:24.413Z,43.20
2018-01-25T09:46:52.006Z,40.90
2018-01-25T09:49:19.934Z,40.40
2018-01-25T09:51:48.251Z,39.70
2018-01-25T09:54:15.922Z,39.60
2018-01-25T09:56:43.486Z,42.00
2018-01-25T09:59:11.105Z,43.90
2018-01-25T10:01:38.617Z,44.30
2018-01-25T10:04:06.120Z,42.60
2018-01-25T10:06:33.664Z,42.70
2018-01-25T10:09:01.960Z,38.90
2018-01-25T10:11:29.438Z,38.80
2018-01-25T10:13:57.002Z,39.70
2018-01-25T10:16:24.488Z,39.00
2018-01-25T10:18:51.999Z,41.50
2018-01-25T10:21:19.469Z,41.10
2018-01-25T10:23:47.025Z,40.70
2018-01-25T10:26:14.539Z,41.50
2018-01-25T10:28:42.021Z,41.70
2018-01-25T10:31:09.545Z,40.60
2018-01-25T10:33:37.039Z,40.90
2018-01-25T10:36:04.543Z,41.50
2018-01-25T10:38:32.020Z,41.20
2018-01-25T10:40:59.495Z,41.40
2018-01-25T10:43:27.734Z,44.70
2018-01-25T10:45:55.255Z,44.60
2018-01-25T10:48:22.740Z,43.30
2018-01-25T10:50:50.229Z,42.10
2018-01-25T10:53:17.700Z,41.60
2018-01-25T10:55:45.935Z,40.00
2018-01-25T10:58:13.581Z,40.10
2018-01-25T11:00:46.736Z,39.70
2018-01-25T11:03:14.237Z,37.90
2018-01-25T11:05:41.833Z,37.00
2018-01-25T11:08:09.370Z,38.40
2018-01-25T11:10:36.863Z,38.00
2018-01-25T11:13:05.126Z,40.10
2018-01-25T11:15:32.626Z,39.90
2018-01-25T11:18:00.114Z,39.40
2018-01-25T11:20:27.596Z,40.20
2018-01-25T11:22:55.111Z,41.30
2018-01-25T11:25:23.026Z,41.90
2018-01-25T11:27:51.070Z,41.60
2018-01-25T11:30:19.737Z,39.80
2018-01-25T11:32:47.264Z,40.70
2018-01-25T11:35:15.650Z,39.10
2018-01-25T11:37:43.331Z,39.00
2018-01-25T11:40:10.780Z,38.70
2018-01-25T11:42:38.252Z,39.50
2018-01-25T11:45:05.722Z,38.40
2018-01-25T11:47:34.221Z,38.10
2018-01-25T11:50:02.962Z,36.60
2018-01-25T11:52:31.075Z,38.40
2018-01-25T11:55:22.074Z,38.60
2018-01-25T11:57:49.558Z,39.60
2018-01-25T12:00:17.091Z,38.90
2018-01-25T12:02:44.561Z,38.10
2018-01-25T12:05:12.064Z,39.30
2018-01-25T12:07:40.499Z,38.40
2018-01-25T12:10:07.969Z,38.60
2018-01-25T12:12:36.088Z,38.90
2018-01-25T12:15:03.060Z,38.10
2018-01-25T12:17:30.622Z,37.60
2018-01-25T12:19:58.091Z,37.80
2018-01-25T12:22:25.575Z,39.10
2018-01-25T12:24:53.064Z,38.70
2018-01-25T12:27:20.543Z,38.40
2018-01-25T12:29:48.011Z,38.60
2018-01-25T12:32:15.492Z,37.90
2018-01-25T12:34:42.996Z,38.70
2018-01-25T12:37:10.469Z,39.50
2018-01-25T12:39:37.932Z,39.80
2018-01-25T12:42:06.091Z,40.80
2018-01-25T12:44:33.645Z,39.10
2018-01-25T12:47:01.166Z,40.00
2018-01-25T12:49:29.830Z,38.90
2018-01-25T12:51:57.906Z,38.90
2018-01-25T12:54:25.383Z,39.40
2018-01-25T12:56:52.839Z,38.70
2018-01-25T12:59:20.316Z,39.70
2018-01-25T13:01:47.789Z,39.80
2018-01-25T13:04:15.251Z,40.90
2018-01-25T13:06:42.819Z,41.10
2018-01-25T13:09:10.305Z,40.90
2018-01-25T13:11:37.762Z,41.50
2018-01-25T13:14:05.239Z,40.80
2018-01-25T13:16:32.696Z,40.30
2018-01-25T13:19:00.172Z,41.40
2018-01-25T13:21:28.403Z,41.60
2018-01-25T13:23:55.904Z,41.60
2018-01-25T13:26:24.137Z,42.90
2018-01-25T13:28:51.611Z,42.90
2018-01-25T13:31:19.070Z,43.30
2018-01-25T13:33:46.544Z,42.90
2018-01-25T13:36:14.008Z,42.50
2018-01-25T13:38:42.262Z,44.00
2018-01-25T13:41:09.753Z,43.20
2018-01-25T13:43:37.991Z,43.30
2018-01-25T13:46:05.457Z,43.30
2018-01-25T13:48:33.088Z,43.90
2018-01-25T13:51:00.468Z,44.20
2018-01-25T13:53:27.942Z,43.70
2018-01-25T13:55:55.423Z,44.20
2018-01-25T13:58:23.686Z,46.50
2018-01-25T14:00:51.164Z,46.40
2018-01-25T14:03:18.620Z,45.30
2018-01-25T14:05:46.111Z,45.60
2018-01-25T14:08:13.575Z,46.40
2018-01-25T14:10:41.047Z,46.50
2018-01-25T14:13:08.519Z,46.60
2018-01-25T14:15:35.991Z,47.30
2018-01-25T14:18:04.220Z,47.00
2018-01-25T14:20:31.696Z,47.00
2018-01-25T14:22:59.164Z,47.00
2018-01-25T14:25:26.658Z,46.10
2018-01-25T14:27:54.120Z,44.60
2018-01-25T14:30:21.603Z,46.20
2018-01-25T14:32:49.075Z,46.20
2018-01-25T14:35:16.560Z,46.50
2018-01-25T14:37:44.031Z,47.90
2018-01-25T14:40:12.272Z,45.70
2018-01-25T14:42:39.734Z,45.70
2018-01-25T14:45:07.334Z,48.80
2018-01-25T14:47:35.565Z,46.70
2018-01-25T14:50:03.040Z,46.70
2018-01-25T14:52:30.506Z,46.60
2018-01-25T14:54:57.977Z,47.20
2018-01-25T14:57:26.228Z,46.50
2018-01-25T14:59:53.699Z,46.50
2018-01-25T15:02:21.169Z,46.10
2018-01-25T15:04:49.393Z,48.70
2018-01-25T15:07:16.859Z,48.60
2018-01-25T15:09:44.354Z,47.50
2018-01-25T15:12:11.791Z,48.80
2018-01-25T15:14:39.273Z,51.00
2018-01-25T15:17:07.512Z,50.10
2018-01-25T15:19:34.979Z,50.60
2018-01-25T15:22:02.447Z,48.90
2018-01-25T15:24:29.916Z,49.40
2018-01-25T15:26:58.163Z,49.20
2018-01-25T15:29:25.614Z,49.20
2018-01-25T15:31:53.083Z,50.30
2018-01-25T15:34:20.551Z,51.80
2018-01-25T15:36:48.015Z,53.10
2018-01-25T15:39:16.246Z,52.60
2018-01-25T15:41:43.715Z,52.50
2018-01-25T15:44:11.179Z,51.80
2018-01-25T15:46:38.664Z,51.50
2018-01-25T15:49:06.120Z,53.10
2018-01-25T15:51:33.599Z,53.80
2018-01-25T15:54:01.830Z,53.30
2018-01-25T15:56:29.304Z,53.20
2018-01-25T15:58:56.763Z,53.30
2018-01-25T16:01:24.239Z,53.50
2018-01-25T16:03:52.477Z,54.10
2018-01-25T16:06:19.937Z,54.00
2018-01-25T16:08:47.428Z,54.30
2018-01-25T16:11:15.677Z,56.00
2018-01-25T16:13:43.143Z,56.00
2018-01-25T16:16:10.615Z,56.20
2018-01-25T16:18:38.853Z,55.30
2018-01-25T16:21:06.317Z,55.30
2018-01-25T16:23:33.795Z,55.40
2018-01-25T16:26:01.265Z,56.90
2018-01-25T16:28:29.534Z,56.50
2018-01-25T16:30:57.344Z,57.10
2018-01-25T16:33:24.825Z,57.50
2018-01-25T16:35:53.052Z,57.80
2018-01-25T16:38:20.523Z,57.80
2018-01-25T16:40:47.977Z,56.80
2018-01-25T16:43:15.491Z,57.10
2018-01-25T16:45:42.938Z,57.20
2018-01-25T16:50:44.719Z,56.50
2018-01-25T16:53:13.553Z,57.20
2018-01-25T16:55:41.031Z,57.30
2018-01-25T16:58:08.507Z,58.20
2018-01-25T17:00:46.962Z,58.00
2018-01-25T17:03:14.899Z,58.00
2018-01-25T17:05:43.213Z,57.60
2018-01-25T17:08:10.796Z,57.60
2018-01-25T17:10:38.342Z,57.30
2018-01-25T17:13:06.703Z,57.30
2018-01-25T17:15:34.290Z,57.50
2018-01-25T17:18:01.879Z,58.10
2018-01-25T17:20:29.436Z,57.50
2018-01-25T17:22:56.958Z,57.60
2018-01-25T17:25:25.314Z,58.30
2018-01-25T17:27:52.920Z,58.40
2018-01-25T17:30:20.557Z,57.60
2018-01-25T17:32:48.357Z,57.70
2018-01-25T17:35:16.808Z,57.50
2018-01-25T17:37:44.344Z,57.40
2018-01-25T17:40:11.891Z,58.90
2018-01-25T17:42:39.410Z,59.10
2018-01-25T17:45:06.918Z,58.60
2018-01-25T17:47:34.445Z,60.50
2018-01-25T17:50:02.759Z,60.80
2018-01-25T17:52:30.408Z,60.70
2018-01-25T17:54:57.978Z,60.10
2018-01-25T17:57:25.573Z,60.10
2018-01-25T17:59:53.196Z,61.40
2018-01-25T18:02:20.723Z,61.90
2018-01-25T18:04:48.330Z,62.40
2018-01-25T18:07:15.954Z,62.40
2018-01-25T18:09:43.515Z,59.90
2018-01-25T18:12:11.137Z,61.60
2018-01-25T18:14:38.774Z,60.70
2018-01-25T18:17:06.368Z,61.10
2018-01-25T18:19:33.857Z,61.60
2018-01-25T18:22:02.209Z,62.30
2018-01-25T18:24:29.699Z,62.30
2018-01-25T18:26:57.931Z,61.50
2018-01-25T18:29:25.390Z,61.40
2018-01-25T18:31:52.844Z,60.70
2018-01-25T18:34:21.210Z,61.90
2018-01-25T18:36:48.658Z,62.80
2018-01-25T18:39:16.156Z,62.30
2018-01-25T18:41:43.618Z,61.80
2018-01-25T18:44:11.127Z,63.40
2018-01-25T18:46:38.649Z,64.20
2018-01-25T18:49:06.149Z,63.90
2018-01-25T18:51:33.662Z,64.40
2018-01-25T18:54:01.195Z,62.80
2018-01-25T18:56:28.657Z,62.70
2018-01-25T18:58:56.106Z,63.50
2018-01-25T19:01:23.631Z,63.80
2018-01-25T19:03:51.130Z,63.60
2018-01-25T19:06:18.596Z,64.20
2018-01-25T19:08:46.062Z,64.30
2018-01-25T19:11:13.586Z,65.00
2018-01-25T19:13:41.039Z,64.80
2018-01-25T19:16:08.583Z,65.70
2018-01-25T19:18:36.048Z,65.60
2018-01-25T19:21:03.541Z,65.00
2018-01-25T19:23:30.991Z,64.80
2018-01-25T19:25:59.225Z,64.00
2018-01-25T19:28:26.754Z,64.00
2018-01-25T19:30:54.308Z,64.80
2018-01-25T19:33:21.798Z,64.30
2018-01-25T19:35:49.261Z,62.90
2018-01-25T19:38:16.775Z,64.10
2018-01-25T19:40:44.289Z,63.90
2018-01-25T19:43:11.790Z,63.10
2018-01-25T19:45:39.300Z,62.30
2018-01-25T19:48:06.796Z,62.50
2018-01-25T19:50:34.364Z,61.50
2018-01-25T19:53:01.870Z,63.20
2018-01-25T19:55:29.381Z,62.60
2018-01-25T19:57:56.995Z,63.40
2018-01-25T20:00:24.450Z,63.80
2018-01-25T20:02:51.972Z,63.40
2018-01-25T20:05:19.429Z,63.90
2018-01-25T20:07:46.945Z,64.70
2018-01-25T20:10:14.472Z,65.00
2018-01-25T20:12:42.022Z,64.60
2018-01-25T20:15:10.305Z,63.90
2018-01-25T20:17:38.539Z,64.10
2018-01-25T20:20:06.047Z,64.00
2018-01-25T20:22:33.569Z,63.90
2018-01-25T20:25:01.030Z,64.40
2018-01-25T20:27:28.499Z,64.60
2018-01-25T20:29:56.775Z,64.10
2018-01-25T20:32:25.005Z,63.70
2018-01-25T20:34:52.575Z,63.70
2018-01-25T20:37:20.087Z,64.10
2018-01-25T20:39:48.350Z,64.20
2018-01-25T20:42:16.632Z,64.40
2018-01-25T20:44:44.165Z,64.40
2018-01-25T20:47:11.705Z,65.00
2018-01-25T20:49:39.216Z,63.90
2018-01-25T20:52:07.653Z,64.50
2018-01-25T20:54:35.256Z,64.40
2018-01-25T20:57:03.552Z,63.50
2018-01-25T20:59:31.123Z,63.40
2018-01-25T21:01:58.640Z,63.60
2018-01-25T21:04:26.107Z,64.60
2018-01-25T21:06:54.435Z,66.40
2018-01-25T21:09:22.089Z,66.40
2018-01-25T21:11:49.660Z,65.80
2018-01-25T21:14:17.267Z,66.20
2018-01-25T21:16:44.887Z,65.80
2018-01-25T21:19:12.569Z,66.60
2018-01-25T21:21:41.013Z,67.10
2018-01-25T21:24:08.542Z,67.00
2018-01-25T21:26:36.114Z,66.70
2018-01-25T21:29:03.721Z,66.50
2018-01-25T21:31:31.410Z,65.60
2018-01-25T21:33:58.959Z,66.10
2018-01-25T21:36:26.581Z,65.90
2018-01-25T21:38:54.142Z,66.40
2018-01-25T21:41:22.504Z,65.70
2018-01-25T21:43:50.096Z,65.70
2018-01-25T21:46:17.684Z,64.90
2018-01-25T21:48:46.072Z,64.90
2018-01-25T21:51:14.428Z,65.40
2018-01-25T21:53:41.959Z,65.30
2018-01-25T21:56:09.467Z,64.90
2018-01-25T21:58:37.807Z,64.30
2018-01-25T22:01:05.371Z,65.00
2018-01-25T22:03:32.907Z,65.30
2018-01-25T22:06:00.476Z,66.10
2018-01-25T22:08:28.058Z,65.80
2018-01-25T22:10:55.572Z,64.70
2018-01-25T22:13:23.130Z,64.60
2018-01-25T22:15:50.736Z,64.70
2018-01-25T22:18:18.240Z,64.20
2018-01-25T22:20:45.769Z,64.30
2018-01-25T22:23:13.268Z,64.60
2018-01-25T22:25:40.846Z,64.90
2018-01-25T22:28:08.421Z,64.00
2018-01-25T22:30:35.996Z,63.90
2018-01-25T22:35:37.525Z,63.70
2018-01-25T22:38:05.089Z,64.50
2018-01-25T22:40:32.591Z,64.10
2018-01-25T22:43:00.074Z,63.90
2018-01-25T22:45:27.567Z,64.20
2018-01-25T22:47:55.116Z,64.90
2018-01-25T22:50:22.630Z,65.60
2018-01-25T22:52:50.184Z,65.20
2018-01-25T22:55:17.733Z,65.20
2018-01-25T22:57:45.279Z,65.10
2018-01-25T23:00:12.775Z,65.20
2018-01-25T23:02:40.272Z,65.00
2018-01-25T23:05:07.787Z,65.40
2018-01-25T23:07:36.063Z,64.50
2018-01-25T23:10:03.604Z,64.50
2018-01-25T23:12:31.089Z,65.30
2018-01-25T23:14:58.622Z,65.20
2018-01-25T23:17:26.155Z,65.70
2018-01-25T23:19:53.642Z,66.90
2018-01-25T23:22:21.118Z,66.40
2018-01-25T23:24:48.615Z,66.80
2018-01-25T23:27:16.149Z,65.80
2018-01-25T23:29:43.642Z,64.60
2018-01-25T23:32:11.133Z,64.50
2018-01-25T23:34:38.774Z,64.70
2018-01-25T23:37:07.024Z,66.40
2018-01-25T23:39:34.601Z,66.30
2018-01-25T23:42:02.075Z,66.20
2018-01-25T23:44:29.617Z,66.90
2018-01-25T23:46:57.106Z,67.70
2018-01-25T23:49:24.564Z,68.40
2018-01-25T23:51:52.038Z,67.80
2018-01-25T23:54:20.276Z,68.40
2018-01-25T23:56:47.768Z,68.30
2018-01-25T23:59:15.244Z,67.40
